| time (UTC) | temp F | wind direction | speed MPH | gust MPH | rain 1hr in | rain 24hr in | rain mn in | humidity % | barometer mb |
| 20260906105628 | 80 | 0 | 2.0 | 8.0 | 0.00 | 0.00 | 0.00 | 60 | 1006.2 |
| 20260906105126 | 79 | 315 | 3.0 | 13.0 | 0.00 | 0.00 | 0.00 | 61 | 1006.2 |
| 20260906104626 | 79 | 0 | 4.0 | 11.0 | 0.00 | 0.00 | 0.00 | 61 | 1006.2 |
| 20260906104126 | 79 | 0 | 2.0 | 11.0 | 0.00 | 0.00 | 0.00 | 61 | 1006.1 |
| 20260906103626 | 79 | 0 | 3.0 | 10.0 | 0.00 | 0.00 | 0.00 | 61 | 1006.2 |
| 20260906103126 | 78 | 315 | 2.0 | 11.0 | 0.00 | 0.00 | 0.00 | 64 | 1006.1 |
| 20260906102626 | 78 | 315 | 3.0 | 9.0 | 0.00 | 0.00 | 0.00 | 64 | 1006.1 |
| 20260906102125 | 79 | 315 | 2.0 | 9.0 | 0.00 | 0.00 | 0.00 | 64 | 1006.2 |
| 20260906101624 | 80 | 270 | 4.0 | 11.0 | 0.00 | 0.00 | 0.00 | 60 | 1006.1 |
| 20260906101125 | 81 | 315 | 2.0 | 13.0 | 0.00 | 0.00 | 0.00 | 57 | 1005.8 |
| 20260906100624 | 83 | 315 | 4.0 | 13.0 | 0.00 | 0.00 | 0.00 | 54 | 1005.8 |
| 20260906100125 | 84 | 225 | 4.0 | 13.0 | 0.00 | 0.00 | 0.00 | 51 | 1005.7 |
| 20260906095625 | 83 | 135 | 3.0 | 11.0 | 0.00 | 0.00 | 0.00 | 54 | 1005.7 |
| 20260906095122 | 84 | 270 | 3.0 | 14.0 | 0.00 | 0.00 | 0.00 | 52 | 1005.7 |
| 20260906094623 | 86 | 270 | 4.0 | 19.0 | 0.00 | 0.00 | 0.00 | 49 | 1005.6 |
| 20260906094122 | 88 | 225 | 2.0 | 12.0 | 0.00 | 0.00 | 0.00 | 43 | 1005.5 |
| 20260906093622 | 86 | 225 | 6.0 | 13.0 | 0.00 | 0.00 | 0.00 | 43 | 1005.4 |
| 20260906093122 | 86 | 270 | 5.0 | 15.0 | 0.00 | 0.00 | 0.00 | 43 | 1005.4 |
| 20260906092623 | 87 | 315 | 2.0 | 13.0 | 0.00 | 0.00 | 0.00 | 42 | 1005.4 |
| 20260906092121 | 89 | 270 | 7.0 | 19.0 | 0.00 | 0.00 | 0.00 | 41 | 1005.4 |
| 20260906091621 | 90 | 270 | 3.0 | 14.0 | 0.00 | 0.00 | 0.00 | 39 | 1005.4 |
| 20260906091121 | 88 | 270 | 8.0 | 15.0 | 0.00 | 0.00 | 0.00 | 39 | 1005.4 |
| 20260906090621 | 91 | 203 | 5.0 | 14.0 | 0.00 | 0.00 | 0.00 | 38 | 1005.3 |
| 20260906090121 | 91 | 0 | 8.0 | 16.0 | 0.00 | 0.00 | 0.00 | 38 | 1005.4 |
| 20260906085621 | 89 | 270 | 5.0 | 16.0 | 0.00 | 0.00 | 0.00 | 38 | 1005.3 |
| 20260906085119 | 89 | 270 | 5.0 | 12.0 | 0.00 | 0.00 | 0.00 | 37 | 1005.5 |
| 20260906084619 | 89 | 270 | 8.0 | 14.0 | 0.00 | 0.00 | 0.00 | 37 | 1005.6 |
| 20260906084118 | 90 | 225 | 6.0 | 15.0 | 0.00 | 0.00 | 0.00 | 37 | 1005.6 |
| 20260906083619 | 90 | 270 | 5.0 | 11.0 | 0.00 | 0.00 | 0.00 | 37 | 1005.5 |
| 20260906083118 | 89 | 270 | 5.0 | 11.0 | 0.00 | 0.00 | 0.00 | 40 | 1005.7 |
| 20260906082620 | 90 | 270 | 4.0 | 13.0 | 0.00 | 0.00 | 0.00 | 40 | 1005.8 |
| 20260906082117 | 89 | 225 | 6.0 | 13.0 | 0.00 | 0.00 | 0.00 | 41 | 1005.9 |
| 20260906081618 | 89 | 270 | 4.0 | 13.0 | 0.00 | 0.00 | 0.00 | 42 | 1006.0 |
| 20260906081117 | 89 | 293 | 2.0 | 13.0 | 0.00 | 0.00 | 0.00 | 42 | 1006.0 |
| 20260906080618 | 89 | 270 | 3.0 | 11.0 | 0.00 | 0.00 | 0.00 | 42 | 1006.0 |
| 20260906080117 | 88 | 270 | 3.0 | 14.0 | 0.00 | 0.00 | 0.00 | 43 | 1006.0 |
| 20260906075618 | 87 | 180 | 5.0 | 11.0 | 0.00 | 0.00 | 0.00 | 42 | 1006.1 |
| 20260906075115 | 84 | 315 | 2.0 | 5.0 | 0.00 | 0.00 | 0.00 | 48 | 1006.1 |
| 20260906074616 | 83 | 270 | 2.0 | 11.0 | 0.00 | 0.00 | 0.00 | 46 | 1006.1 |
| 20260906074115 | 83 | 225 | 3.0 | 8.0 | 0.00 | 0.00 | 0.00 | 49 | 1006.1 |
| 20260906073615 | 83 | 0 | 2.0 | 8.0 | 0.00 | 0.00 | 0.00 | 51 | 1006.1 |
| 20260906073115 | 84 | 225 | 3.0 | 10.0 | 0.00 | 0.00 | 0.00 | 52 | 1006.1 |
| 20260906072615 | 84 | 90 | 2.0 | 11.0 | 0.00 | 0.00 | 0.00 | 52 | 1006.3 |
| 20260906072114 | 83 | 270 | 0.0 | 5.0 | 0.00 | 0.00 | 0.00 | 54 | 1006.5 |
| 20260906071613 | 83 | 270 | 0.0 | 6.0 | 0.00 | 0.00 | 0.00 | 56 | 1006.6 |
| 20260906071114 | 82 | 135 | 2.0 | 9.0 | 0.00 | 0.00 | 0.00 | 56 | 1006.6 |
| 20260906070614 | 82 | 270 | 2.0 | 7.0 | 0.00 | 0.00 | 0.00 | 55 | 1006.6 |
| 20260906070114 | 83 | 135 | 2.0 | 12.0 | 0.00 | 0.00 | 0.00 | 55 | 1006.5 |
| 20260906065615 | 83 | 225 | 2.0 | 8.0 | 0.00 | 0.00 | 0.00 | 56 | 1006.6 |
| 20260906065112 | 83 | 0 | 3.0 | 8.0 | 0.00 | 0.00 | 0.00 | 55 | 1006.7 |
| 20260906064611 | 84 | 225 | 3.0 | 10.0 | 0.00 | 0.00 | 0.00 | 55 | 1006.8 |
| 20260906064112 | 85 | 0 | 2.0 | 9.0 | 0.00 | 0.00 | 0.00 | 54 | 1006.7 |
| 20260906063611 | 84 | 270 | 1.0 | 8.0 | 0.00 | 0.00 | 0.00 | 56 | 1006.8 |
| 20260906063112 | 83 | 90 | 0.0 | 6.0 | 0.00 | 0.00 | 0.00 | 59 | 1006.8 |
| 20260906062612 | 82 | 180 | 2.0 | 11.0 | 0.00 | 0.00 | 0.00 | 60 | 1006.9 |
| 20260906062111 | 82 | 225 | 1.0 | 8.0 | 0.00 | 0.00 | 0.00 | 60 | 1006.9 |
| 20260906061610 | 81 | 90 | 0.0 | 10.0 | 0.00 | 0.00 | 0.00 | 62 | 1007.1 |
| 20260906061111 | 81 | 270 | 2.0 | 10.0 | 0.00 | 0.00 | 0.00 | 63 | 1007.3 |
| 20260906060610 | 81 | 0 | 2.0 | 7.0 | 0.00 | 0.00 | 0.00 | 63 | 1007.4 |
| 20260906060111 | 80 | 225 | 2.0 | 10.0 | 0.00 | 0.00 | 0.00 | 64 | 1007.5 |
| 20260906055611 | 79 | 225 | 2.0 | 10.0 | 0.00 | 0.00 | 0.00 | 65 | 1007.5 |
| 20260906055110 | 79 | 248 | 2.0 | 8.0 | 0.00 | 0.00 | 0.00 | 66 | 1007.6 |
| 20260906054609 | 78 | 248 | 4.0 | 8.0 | 0.00 | 0.00 | 0.00 | 67 | 1007.6 |
| 20260906054110 | 77 | 225 | 2.0 | 8.0 | 0.00 | 0.00 | 0.00 | 69 | 1007.6 |
| 20260906053609 | 76 | 225 | 4.0 | 8.0 | 0.00 | 0.00 | 0.00 | 69 | 1007.6 |
| 20260906053109 | 77 | 248 | 2.0 | 8.0 | 0.00 | 0.00 | 0.00 | 68 | 1007.7 |
| 20260906052609 | 76 | 225 | 3.0 | 9.0 | 0.00 | 0.00 | 0.00 | 69 | 1007.7 |
| 20260906052109 | 76 | 270 | 3.0 | 9.0 | 0.00 | 0.00 | 0.00 | 70 | 1007.8 |
| 20260906051609 | 75 | 180 | 2.0 | 7.0 | 0.00 | 0.00 | 0.00 | 71 | 1007.8 |
| 20260906051109 | 74 | 225 | 3.0 | 8.0 | 0.00 | 0.00 | 0.00 | 72 | 1007.8 |
| 20260906050609 | 74 | 270 | 1.0 | 7.0 | 0.00 | 0.00 | 0.00 | 72 | 1007.9 |
| 20260906050109 | 73 | 0 | 3.0 | 7.0 | 0.00 | 0.00 | 0.00 | 73 | 1008.0 |
| 20260906045609 | 73 | 225 | 4.0 | 8.0 | 0.00 | 0.00 | 0.00 | 74 | 1008.1 |
| 20260906045109 | 72 | 225 | 2.0 | 5.0 | 0.00 | 0.00 | 0.00 | 74 | 1008.1 |
| 20260906044609 | 72 | 315 | 0.0 | 7.0 | 0.00 | 0.00 | 0.00 | 74 | 1008.0 |
| 20260906044108 | 71 | 158 | 1.0 | 7.0 | 0.00 | 0.00 | 0.00 | 75 | 1008.1 |
| 20260906043609 | 71 | 248 | 3.0 | 7.0 | 0.00 | 0.00 | 0.00 | 75 | 1008.2 |
| 20260906043108 | 70 | 225 | 0.0 | 5.0 | 0.00 | 0.00 | 0.00 | 75 | 1008.2 |
| 20260906042609 | 70 | 270 | 1.0 | 6.0 | 0.00 | 0.00 | 0.00 | 75 | 1008.1 |
| 20260906042108 | 69 | 0 | 2.0 | 5.0 | 0.00 | 0.00 | 0.00 | 75 | 1008.1 |
| 20260906041609 | 69 | 270 | 2.0 | 5.0 | 0.00 | 0.00 | 0.00 | 75 | 1008.2 |
| 20260906041108 | 69 | 225 | 2.0 | 6.0 | 0.00 | 0.00 | 0.00 | 75 | 1008.2 |
| 20260906040608 | 68 | 315 | 0.0 | 3.0 | 0.00 | 0.00 | 0.00 | 75 | 1008.3 |
| 20260906040109 | 68 | 135 | 0.0 | 2.0 | 0.00 | 0.00 | 0.00 | 76 | 1008.3 |
| 20260906035609 | 67 | 0 | 0.0 | 2.0 | 0.00 | 0.00 | 0.00 | 76 | 1008.3 |
| 20260906035108 | 67 | 135 | 0.0 | 1.0 | 0.00 | 0.00 | 0.00 | 76 | 1008.2 |
| 20260906034608 | 66 | 270 | 0.0 | 2.0 | 0.00 | 0.00 | 0.00 | 75 | 1008.2 |
| 20260906034108 | 66 | 270 | 0.0 | 2.0 | 0.00 | 0.00 | 0.00 | 75 | 1008.2 |
| 20260906033608 | 65 | 180 | 0.0 | 1.0 | 0.00 | 0.00 | 0.00 | 76 | 1008.2 |
| 20260906033108 | 65 | 135 | 0.0 | 2.0 | 0.00 | 0.00 | 0.00 | 76 | 1008.2 |
| 20260906032608 | 65 | 203 | 0.0 | 1.0 | 0.00 | 0.00 | 0.00 | 76 | 1008.2 |
| 20260906032108 | 64 | 270 | 0.0 | 1.0 | 0.00 | 0.00 | 0.00 | 76 | 1008.2 |
| 20260906031608 | 64 | 180 | 0.0 | 1.0 | 0.00 | 0.00 | 0.00 | 76 | 1008.2 |
| 20260906031107 | 64 | 270 | 0.0 | 2.0 | 0.00 | 0.00 | 0.00 | 76 | 1008.1 |
| 20260906030608 | 64 | 135 | 0.0 | 1.0 | 0.00 | 0.00 | 0.00 | 76 | 1008.1 |
| 20260906030108 | 64 | 90 | 0.0 | 1.0 | 0.00 | 0.00 | 0.00 | 75 | 1008.1 |
| 20260906025608 | 64 | 0 | 0.0 | 2.0 | 0.00 | 0.00 | 0.00 | 75 | 1008.1 |
| 20260906025107 | 64 | 135 | 0.0 | 1.0 | 0.00 | 0.00 | 0.00 | 75 | 1008.0 |
| 20260906024608 | 64 | 315 | 0.0 | 1.0 | 0.00 | 0.00 | 0.00 | 75 | 1008.1 |
| 20260906024108 | 65 | 270 | 0.0 | 1.0 | 0.00 | 0.00 | 0.00 | 75 | 1008.0 |
| 20260906023608 | 65 | 315 | 0.0 | 1.0 | 0.00 | 0.00 | 0.00 | 74 | 1007.9 |
| 20260906023108 | 65 | 270 | 0.0 | 2.0 | 0.00 | 0.00 | 0.00 | 74 | 1007.9 |
| 20260906022607 | 64 | 180 | 0.0 | 2.0 | 0.00 | 0.00 | 0.00 | 75 | 1007.8 |
| 20260906022108 | 64 | 270 | 0.0 | 3.0 | 0.00 | 0.00 | 0.00 | 75 | 1007.8 |
| 20260906021607 | 64 | 315 | 0.0 | 1.0 | 0.00 | 0.00 | 0.00 | 75 | 1007.8 |
| 20260906021108 | 64 | 270 | 0.0 | 2.0 | 0.00 | 0.00 | 0.00 | 75 | 1007.8 |
| 20260906020607 | 64 | 270 | 0.0 | 2.0 | 0.00 | 0.00 | 0.00 | 76 | 1007.8 |
| 20260906020108 | 64 | 180 | 0.0 | 2.0 | 0.00 | 0.00 | 0.00 | 76 | 1007.8 |
| 20260906015607 | 64 | 315 | 0.0 | 0.0 | 0.00 | 0.00 | 0.00 | 76 | 1007.7 |
| 20260906015107 | 64 | 270 | 0.0 | 0.0 | 0.00 | 0.00 | 0.00 | 76 | 1007.6 |
| 20260906014607 | 64 | 135 | 0.0 | 2.0 | 0.00 | 0.00 | 0.00 | 76 | 1007.7 |
| 20260906014107 | 64 | 135 | 0.0 | 0.0 | 0.00 | 0.00 | 0.00 | 76 | 1007.8 |
| 20260906013607 | 64 | 270 | 0.0 | 0.0 | 0.00 | 0.00 | 0.00 | 76 | 1007.9 |
| 20260906013107 | 64 | 180 | 0.0 | 0.0 | 0.00 | 0.00 | 0.00 | 76 | 1007.9 |
| 20260906012606 | 64 | 180 | 0.0 | 1.0 | 0.00 | 0.00 | 0.00 | 77 | 1007.9 |
| 20260906012107 | 63 | 135 | 0.0 | 0.0 | 0.00 | 0.00 | 0.00 | 76 | 1007.9 |
| 20260906011607 | 63 | 225 | 0.0 | 1.0 | 0.00 | 0.00 | 0.00 | 76 | 1008.0 |
| 20260906011107 | 63 | 180 | 0.0 | 1.0 | 0.00 | 0.00 | 0.00 | 76 | 1008.1 |
| 20260906010607 | 63 | 90 | 0.0 | 1.0 | 0.00 | 0.00 | 0.00 | 77 | 1008.2 |
| 20260906010107 | 63 | 90 | 0.0 | 0.0 | 0.00 | 0.00 | 0.00 | 77 | 1008.1 |
| 20260906005607 | 63 | 90 | 0.0 | 0.0 | 0.00 | 0.00 | 0.00 | 76 | 1008.2 |
| 20260906005107 | 63 | 90 | 0.0 | 0.0 | 0.00 | 0.00 | 0.00 | 76 | 1008.3 |
| 20260906004607 | 63 | 90 | 0.0 | 0.0 | 0.00 | 0.00 | 0.00 | 76 | 1008.4 |
| 20260906004106 | 63 | 45 | 0.0 | 0.0 | 0.00 | 0.00 | 0.00 | 76 | 1008.3 |
| 20260906003607 | 63 | 45 | 0.0 | 0.0 | 0.00 | 0.00 | 0.00 | 76 | 1008.4 |
| 20260906003106 | 63 | 90 | 0.0 | 0.0 | 0.00 | 0.00 | 0.00 | 75 | 1008.4 |
| 20260906002607 | 64 | 90 | 0.0 | 0.0 | 0.00 | 0.00 | 0.00 | 74 | 1008.4 |
| 20260906002106 | 64 | 90 | 0.0 | 0.0 | 0.00 | 0.00 | 0.00 | 73 | 1008.4 |
| 20260906001607 | 64 | 135 | 0.0 | 0.0 | 0.00 | 0.00 | 0.00 | 73 | 1008.5 |
| 20260906001106 | 64 | 90 | 0.0 | 0.0 | 0.00 | 0.00 | 0.00 | 73 | 1008.4 |
| 20260906000606 | 64 | 45 | 0.0 | 1.0 | 0.00 | 0.00 | 0.00 | 72 | 1008.4 |
| 20260906000106 | 64 | 45 | 0.0 | 1.0 | 0.00 | 0.00 | 0.00 | 72 | 1008.4 |
| 20260905235606 | 64 | 180 | 0.0 | 2.0 | 0.00 | 0.00 | 0.00 | 72 | 1008.4 |
| 20260905235106 | 64 | 90 | 0.0 | 1.0 | 0.00 | 0.00 | 0.00 | 72 | 1008.5 |
| 20260905234606 | 64 | 180 | 0.0 | 0.0 | 0.00 | 0.00 | 0.00 | 71 | 1008.5 |
| 20260905234106 | 64 | 180 | 0.0 | 1.0 | 0.00 | 0.00 | 0.00 | 71 | 1008.6 |
| 20260905233606 | 64 | 135 | 0.0 | 1.0 | 0.00 | 0.00 | 0.00 | 71 | 1008.5 |
| 20260905233106 | 64 | 180 | 0.0 | 1.0 | 0.00 | 0.00 | 0.00 | 71 | 1008.5 |
| 20260905232606 | 64 | 180 | 0.0 | 0.0 | 0.00 | 0.00 | 0.00 | 71 | 1008.5 |
| 20260905232106 | 63 | 225 | 0.0 | 0.0 | 0.00 | 0.00 | 0.00 | 71 | 1008.6 |
| 20260905231605 | 63 | 90 | 0.0 | 1.0 | 0.00 | 0.00 | 0.00 | 70 | 1008.5 |
| 20260905231106 | 63 | 45 | 0.0 | 0.0 | 0.00 | 0.00 | 0.00 | 70 | 1008.5 |
| 20260905230605 | 63 | 90 | 0.0 | 0.0 | 0.00 | 0.00 | 0.00 | 70 | 1008.5 |
| 20260905230106 | 63 | 90 | 0.0 | 0.0 | 0.00 | 0.00 | 0.00 | 70 | 1008.5 |
| 20260905225106 | 65 | 90 | 0.0 | 0.0 | 0.00 | 0.00 | 0.00 | 69 | 1008.4 |
| 20260905224605 | 65 | 90 | 0.0 | 0.0 | 0.00 | 0.00 | 0.00 | 69 | 1008.5 |
| 20260905224106 | 65 | 90 | 0.0 | 0.0 | 0.00 | 0.00 | 0.00 | 68 | 1008.5 |
| 20260905223605 | 65 | 90 | 0.0 | 0.0 | 0.00 | 0.00 | 0.00 | 68 | 1008.5 |
| 20260905223105 | 66 | 90 | 0.0 | 0.0 | 0.00 | 0.00 | 0.00 | 67 | 1008.5 |
| 20260905222605 | 66 | 270 | 0.0 | 0.0 | 0.00 | 0.00 | 0.00 | 67 | 1008.5 |
| 20260905222105 | 65 | 135 | 0.0 | 0.0 | 0.00 | 0.00 | 0.00 | 67 | 1008.5 |
| 20260905221605 | 65 | 135 | 0.0 | 1.0 | 0.00 | 0.00 | 0.00 | 66 | 1008.5 |
| 20260905221105 | 65 | 45 | 0.0 | 1.0 | 0.00 | 0.00 | 0.00 | 66 | 1008.5 |
| 20260905220605 | 66 | 0 | 0.0 | 0.0 | 0.00 | 0.00 | 0.00 | 65 | 1008.5 |
| 20260905220105 | 66 | 45 | 0.0 | 0.0 | 0.00 | 0.00 | 0.00 | 65 | 1008.5 |
| 20260905215605 | 66 | 180 | 0.0 | 1.0 | 0.00 | 0.00 | 0.00 | 64 | 1008.5 |
| 20260905215105 | 66 | 180 | 0.0 | 0.0 | 0.00 | 0.00 | 0.00 | 64 | 1008.5 |
| 20260905214606 | 66 | 225 | 0.0 | 0.0 | 0.00 | 0.00 | 0.00 | 64 | 1008.5 |
| 20260905214105 | 66 | 180 | 0.0 | 1.0 | 0.00 | 0.00 | 0.00 | 64 | 1008.5 |
| 20260905213604 | 66 | 180 | 0.0 | 1.0 | 0.00 | 0.00 | 0.00 | 63 | 1008.6 |
| 20260905213105 | 66 | 0 | 0.0 | 1.0 | 0.00 | 0.00 | 0.00 | 63 | 1008.6 |
| 20260905212605 | 66 | 225 | 0.0 | 1.0 | 0.00 | 0.00 | 0.00 | 63 | 1008.6 |
| 20260905212105 | 66 | 135 | 0.0 | 2.0 | 0.00 | 0.00 | 0.00 | 64 | 1008.7 |
| 20260905211605 | 66 | 135 | 0.0 | 1.0 | 0.00 | 0.00 | 0.00 | 63 | 1008.6 |
| 20260905211104 | 66 | 180 | 0.0 | 1.0 | 0.00 | 0.00 | 0.00 | 63 | 1008.7 |
| 20260905210605 | 66 | 158 | 0.0 | 1.0 | 0.00 | 0.00 | 0.00 | 63 | 1008.7 |
| 20260905210104 | 67 | 135 | 0.0 | 0.0 | 0.00 | 0.00 | 0.00 | 63 | 1008.7 |
| 20260905205605 | 67 | 180 | 0.0 | 1.0 | 0.00 | 0.00 | 0.00 | 63 | 1008.7 |
| 20260905205104 | 67 | 0 | 0.0 | 1.0 | 0.00 | 0.00 | 0.00 | 63 | 1008.7 |
| 20260905204605 | 67 | 180 | 0.0 | 1.0 | 0.00 | 0.00 | 0.00 | 63 | 1008.8 |
| 20260905204104 | 67 | 180 | 0.0 | 2.0 | 0.00 | 0.00 | 0.00 | 64 | 1008.7 |
| 20260905203605 | 67 | 180 | 0.0 | 1.0 | 0.00 | 0.00 | 0.00 | 63 | 1008.7 |
| 20260905203104 | 67 | 0 | 0.0 | 1.0 | 0.00 | 0.00 | 0.00 | 64 | 1008.7 |
| 20260905202604 | 67 | 180 | 0.0 | 0.0 | 0.00 | 0.00 | 0.00 | 64 | 1008.8 |
| 20260905202104 | 67 | 270 | 0.0 | 0.0 | 0.00 | 0.00 | 0.00 | 63 | 1008.9 |
| 20260905201605 | 67 | 180 | 0.0 | 0.0 | 0.00 | 0.00 | 0.00 | 63 | 1008.9 |
| 20260905201105 | 67 | 0 | 0.0 | 0.0 | 0.00 | 0.00 | 0.00 | 62 | 1009.0 |
| 20260905200602 | 67 | 0 | 0.0 | 0.0 | 0.00 | 0.00 | 0.00 | 62 | 1009.1 |
| 20260905195602 | 67 | 90 | 0.0 | 0.0 | 0.00 | 0.00 | 0.00 | 61 | 1009.0 |
| 20260905195102 | 67 | 180 | 0.0 | 1.0 | 0.00 | 0.00 | 0.00 | 61 | 1009.0 |
| 20260905194602 | 67 | 180 | 0.0 | 0.0 | 0.00 | 0.00 | 0.00 | 61 | 1009.1 |
| 20260905194102 | 67 | 0 | 0.0 | 0.0 | 0.00 | 0.00 | 0.00 | 60 | 1009.0 |
| 20260905193601 | 67 | 90 | 0.0 | 0.0 | 0.00 | 0.00 | 0.00 | 60 | 1009.0 |
| 20260905193100 | 67 | 180 | 0.0 | 1.0 | 0.00 | 0.00 | 0.00 | 60 | 1009.1 |
| 20260905192601 | 66 | 180 | 0.0 | 1.0 | 0.00 | 0.00 | 0.00 | 61 | 1009.1 |
| 20260905192101 | 65 | 180 | 0.0 | 0.0 | 0.00 | 0.00 | 0.00 | 61 | 1009.1 |
| 20260905191601 | 66 | 90 | 0.0 | 0.0 | 0.00 | 0.00 | 0.00 | 60 | 1009.1 |
| 20260905191101 | 67 | 90 | 0.0 | 0.0 | 0.00 | 0.00 | 0.00 | 60 | 1009.1 |
| 20260905190559 | 67 | 90 | 0.0 | 0.0 | 0.00 | 0.00 | 0.00 | 60 | 1009.2 |
| 20260905190059 | 68 | 90 | 0.0 | 0.0 | 0.00 | 0.00 | 0.00 | 60 | 1009.3 |
| 20260905185558 | 68 | 90 | 0.0 | 0.0 | 0.00 | 0.00 | 0.00 | 60 | 1009.3 |
| 20260905185059 | 68 | 90 | 0.0 | 0.0 | 0.00 | 0.00 | 0.00 | 59 | 1009.4 |
| 20260905184558 | 68 | 270 | 0.0 | 0.0 | 0.00 | 0.00 | 0.00 | 61 | 1009.4 |
| 20260905184059 | 68 | 270 | 0.0 | 0.0 | 0.00 | 0.00 | 0.00 | 60 | 1009.3 |
| 20260905183057 | 69 | 0 | 0.0 | 0.0 | 0.00 | 0.00 | 0.00 | 61 | 1009.3 |
| 20260905182557 | 69 | 270 | 0.0 | 0.0 | 0.00 | 0.00 | 0.00 | 60 | 1009.3 |
| 20260905182057 | 69 | 270 | 0.0 | 0.0 | 0.00 | 0.00 | 0.00 | 60 | 1009.4 |
| 20260905181557 | 70 | 270 | 0.0 | 0.0 | 0.00 | 0.00 | 0.00 | 58 | 1009.4 |
| 20260905181057 | 70 | 270 | 0.0 | 0.0 | 0.00 | 0.00 | 0.00 | 58 | 1009.4 |
| 20260905180555 | 71 | 270 | 0.0 | 0.0 | 0.00 | 0.00 | 0.00 | 56 | 1009.4 |
| 20260905180056 | 71 | 270 | 0.0 | 0.0 | 0.00 | 0.00 | 0.00 | 55 | 1009.5 |
| 20260905175556 | 72 | 270 | 0.0 | 0.0 | 0.00 | 0.00 | 0.00 | 54 | 1009.5 |
| 20260905175056 | 72 | 270 | 0.0 | 0.0 | 0.00 | 0.00 | 0.00 | 54 | 1009.4 |
| 20260905174555 | 72 | 0 | 0.0 | 0.0 | 0.00 | 0.00 | 0.00 | 54 | 1009.4 |
| 20260905174056 | 72 | 270 | 0.0 | 0.0 | 0.00 | 0.00 | 0.00 | 53 | 1009.4 |
| 20260905173553 | 73 | 0 | 0.0 | 0.0 | 0.00 | 0.00 | 0.00 | 53 | 1009.4 |
| 20260905173054 | 73 | 270 | 0.0 | 0.0 | 0.00 | 0.00 | 0.00 | 52 | 1009.4 |
| 20260905172553 | 74 | 270 | 0.0 | 0.0 | 0.00 | 0.00 | 0.00 | 51 | 1009.4 |
| 20260905172054 | 74 | 270 | 0.0 | 0.0 | 0.00 | 0.00 | 0.00 | 50 | 1009.5 |
| 20260905171554 | 74 | 315 | 0.0 | 1.0 | 0.00 | 0.00 | 0.00 | 49 | 1009.5 |
| 20260905171054 | 74 | 270 | 0.0 | 2.0 | 0.00 | 0.00 | 0.00 | 50 | 1009.5 |
| 20260905170553 | 75 | 270 | 0.0 | 1.0 | 0.00 | 0.00 | 0.00 | 49 | 1009.5 |
| 20260905170052 | 75 | 225 | 0.0 | 1.0 | 0.00 | 0.00 | 0.00 | 48 | 1009.4 |
| 20260905165553 | 75 | 270 | 0.0 | 0.0 | 0.00 | 0.00 | 0.00 | 47 | 1009.4 |
| 20260905165053 | 76 | 315 | 0.0 | 2.0 | 0.00 | 0.00 | 0.00 | 47 | 1009.3 |
| 20260905164554 | 76 | 270 | 0.0 | 2.0 | 0.00 | 0.00 | 0.00 | 46 | 1009.3 |
| 20260905164053 | 77 | 315 | 0.0 | 2.0 | 0.00 | 0.00 | 0.00 | 45 | 1009.3 |
| 20260905163553 | 77 | 270 | 1.0 | 3.0 | 0.00 | 0.00 | 0.00 | 44 | 1009.2 |
| 20260905163053 | 77 | 225 | 0.0 | 4.0 | 0.00 | 0.00 | 0.00 | 44 | 1009.2 |
| 20260905162553 | 78 | 270 | 1.0 | 5.0 | 0.00 | 0.00 | 0.00 | 43 | 1009.2 |
| 20260905162053 | 78 | 315 | 1.0 | 5.0 | 0.00 | 0.00 | 0.00 | 42 | 1009.1 |
| 20260905161554 | 78 | 0 | 1.0 | 5.0 | 0.00 | 0.00 | 0.00 | 42 | 1008.9 |
| 20260905161053 | 78 | 270 | 1.0 | 4.0 | 0.00 | 0.00 | 0.00 | 41 | 1008.9 |
| 20260905160553 | 79 | 270 | 1.0 | 3.0 | 0.00 | 0.00 | 0.00 | 41 | 1008.9 |
| 20260905160053 | 79 | 293 | 2.0 | 5.0 | 0.00 | 0.00 | 0.00 | 41 | 1008.8 |
| 20260905155553 | 79 | 270 | 1.0 | 5.0 | 0.00 | 0.00 | 0.00 | 41 | 1008.8 |
| 20260905155053 | 80 | 0 | 1.0 | 5.0 | 0.00 | 0.00 | 0.00 | 41 | 1008.8 |
| 20260905154553 | 80 | 315 | 2.0 | 5.0 | 0.00 | 0.00 | 0.00 | 41 | 1008.7 |
| 20260905154052 | 81 | 180 | 2.0 | 7.0 | 0.00 | 0.00 | 0.00 | 40 | 1008.7 |
| 20260905153553 | 81 | 270 | 3.0 | 8.0 | 0.00 | 0.00 | 0.00 | 40 | 1008.7 |
| 20260905153052 | 81 | 270 | 2.0 | 5.0 | 0.00 | 0.00 | 0.00 | 39 | 1008.6 |
| 20260905152553 | 82 | 270 | 3.0 | 6.0 | 0.00 | 0.00 | 0.00 | 39 | 1008.6 |
| 20260905152052 | 82 | 270 | 2.0 | 7.0 | 0.00 | 0.00 | 0.00 | 38 | 1008.6 |
| 20260905151553 | 83 | 225 | 2.0 | 8.0 | 0.00 | 0.00 | 0.00 | 37 | 1008.5 |
| 20260905151052 | 83 | 338 | 3.0 | 7.0 | 0.00 | 0.00 | 0.00 | 37 | 1008.5 |
| 20260905150553 | 83 | 315 | 3.0 | 7.0 | 0.00 | 0.00 | 0.00 | 36 | 1008.4 |
| 20260905150052 | 83 | 338 | 3.0 | 10.0 | 0.00 | 0.00 | 0.00 | 36 | 1008.5 |
| 20260905145553 | 84 | 225 | 4.0 | 12.0 | 0.00 | 0.00 | 0.00 | 35 | 1008.4 |
| 20260905145052 | 84 | 270 | 5.0 | 11.0 | 0.00 | 0.00 | 0.00 | 35 | 1008.4 |
| 20260905144553 | 84 | 270 | 3.0 | 10.0 | 0.00 | 0.00 | 0.00 | 34 | 1008.4 |
| 20260905144052 | 84 | 225 | 2.0 | 8.0 | 0.00 | 0.00 | 0.00 | 34 | 1008.4 |
| 20260905143553 | 85 | 0 | 5.0 | 11.0 | 0.00 | 0.00 | 0.00 | 33 | 1008.4 |
| 20260905143052 | 85 | 0 | 2.0 | 11.0 | 0.00 | 0.00 | 0.00 | 33 | 1008.4 |
| 20260905142552 | 85 | 23 | 2.0 | 8.0 | 0.00 | 0.00 | 0.00 | 32 | 1008.3 |
| 20260905142052 | 85 | 270 | 4.0 | 8.0 | 0.00 | 0.00 | 0.00 | 31 | 1008.3 |
| 20260905141552 | 85 | 315 | 2.0 | 9.0 | 0.00 | 0.00 | 0.00 | 31 | 1008.2 |
| 20260905141052 | 86 | 180 | 6.0 | 14.0 | 0.00 | 0.00 | 0.00 | 31 | 1008.2 |
| 20260905140552 | 86 | 270 | 3.0 | 9.0 | 0.00 | 0.00 | 0.00 | 32 | 1008.2 |
| 20260905140052 | 86 | 270 | 4.0 | 10.0 | 0.00 | 0.00 | 0.00 | 31 | 1008.1 |
| 20260905135158 | 86 | 270 | 3.0 | 8.0 | 0.00 | 0.00 | 0.00 | 32 | 1008.1 |
| 20260905134658 | 86 | 225 | 4.0 | 14.0 | 0.00 | 0.00 | 0.00 | 31 | 1008.2 |
| 20260905134157 | 87 | 270 | 6.0 | 11.0 | 0.00 | 0.00 | 0.00 | 31 | 1008.1 |
| 20260905133658 | 87 | 270 | 3.0 | 10.0 | 0.00 | 0.00 | 0.00 | 31 | 1008.1 |
| 20260905133157 | 87 | 180 | 5.0 | 13.0 | 0.00 | 0.00 | 0.00 | 30 | 1008.1 |
| 20260905132657 | 87 | 225 | 5.0 | 10.0 | 0.00 | 0.00 | 0.00 | 31 | 1008.1 |
| 20260905132157 | 88 | 0 | 4.0 | 13.0 | 0.00 | 0.00 | 0.00 | 31 | 1008.1 |
| 20260905131657 | 88 | 225 | 4.0 | 11.0 | 0.00 | 0.00 | 0.00 | 31 | 1008.2 |
| 20260905131157 | 88 | 315 | 3.0 | 8.0 | 0.00 | 0.00 | 0.00 | 31 | 1008.1 |
| 20260905130657 | 88 | 225 | 2.0 | 13.0 | 0.00 | 0.00 | 0.00 | 30 | 1008.1 |
| 20260905130157 | 88 | 270 | 5.0 | 11.0 | 0.00 | 0.00 | 0.00 | 30 | 1008.1 |
| 20260905125657 | 88 | 270 | 2.0 | 14.0 | 0.00 | 0.00 | 0.00 | 30 | 1008.2 |
| 20260905125157 | 88 | 270 | 4.0 | 14.0 | 0.00 | 0.00 | 0.00 | 30 | 1008.1 |
| 20260905124657 | 89 | 270 | 7.0 | 14.0 | 0.00 | 0.00 | 0.00 | 31 | 1008.0 |
| 20260905124156 | 88 | 315 | 3.0 | 8.0 | 0.00 | 0.00 | 0.00 | 30 | 1008.0 |
| 20260905123657 | 89 | 270 | 2.0 | 11.0 | 0.00 | 0.00 | 0.00 | 30 | 1008.1 |
| 20260905123156 | 89 | 225 | 5.0 | 12.0 | 0.00 | 0.00 | 0.00 | 30 | 1007.9 |
| 20260905122657 | 89 | 0 | 2.0 | 9.0 | 0.00 | 0.00 | 0.00 | 31 | 1008.0 |
| 20260905122156 | 89 | 270 | 2.0 | 8.0 | 0.00 | 0.00 | 0.00 | 31 | 1008.1 |
| 20260905121657 | 89 | 315 | 2.0 | 7.0 | 0.00 | 0.00 | 0.00 | 31 | 1008.1 |
| 20260905121156 | 89 | 180 | 2.0 | 10.0 | 0.00 | 0.00 | 0.00 | 30 | 1008.0 |
| 20260905120657 | 90 | 180 | 3.0 | 9.0 | 0.00 | 0.00 | 0.00 | 29 | 1008.0 |
| 20260905120156 | 90 | 270 | 2.0 | 8.0 | 0.00 | 0.00 | 0.00 | 31 | 1008.0 |
| 20260905115657 | 89 | 225 | 3.0 | 5.0 | 0.00 | 0.00 | 0.00 | 32 | 1008.1 |
| 20260905115156 | 89 | 180 | 1.0 | 5.0 | 0.00 | 0.00 | 0.00 | 32 | 1008.2 |
| 20260905114657 | 88 | 293 | 0.0 | 7.0 | 0.00 | 0.00 | 0.00 | 32 | 1008.1 |
| 20260905114156 | 88 | 225 | 2.0 | 13.0 | 0.00 | 0.00 | 0.00 | 33 | 1008.2 |
| 20260905113657 | 89 | 270 | 6.0 | 11.0 | 0.00 | 0.00 | 0.00 | 32 | 1008.2 |
| 20260905113156 | 90 | 0 | 4.0 | 10.0 | 0.00 | 0.00 | 0.00 | 33 | 1008.3 |
| 20260905112656 | 89 | 338 | 2.0 | 8.0 | 0.00 | 0.00 | 0.00 | 33 | 1008.2 |
| 20260905112156 | 89 | 0 | 2.0 | 10.0 | 0.00 | 0.00 | 0.00 | 33 | 1008.3 |
| 20260905111656 | 89 | 270 | 4.0 | 10.0 | 0.00 | 0.00 | 0.00 | 33 | 1008.4 |
| 20260905111156 | 89 | 270 | 1.0 | 9.0 | 0.00 | 0.00 | 0.00 | 33 | 1008.5 |
| 20260905110656 | 89 | 315 | 0.0 | 7.0 | 0.00 | 0.00 | 0.00 | 33 | 1008.5 |
| 20260905110156 | 90 | 0 | 3.0 | 8.0 | 0.00 | 0.00 | 0.00 | 32 | 1008.6 |